Time;durP1;ratioP1;P1;durP2;ratioP2;P2;SDS_P1;SDS_P2;PMS_P1;PMS_P2;Temp;Humidity;BMP_temperature;BMP_pressure;BME280_temperature;BME280_humidity;BME280_pressure;Samples;Min_cycle;Max_cycle;Signal;HPM_P1;HPM_P2
2021/04/21 00:01:13;;;;;;;10.35;4.05;;;;;;;;;;5070023;28;20025;-82
2021/04/21 00:03:40;;;;;;;8.93;4.07;;;;;;;;;;5067142;28;20013;-83
2021/04/21 00:06:07;;;;;;;7.22;3.97;;;;;;;;;;5059392;28;20044;-83
2021/04/21 00:08:34;;;;;;;8.95;4.65;;;;;;;;;;5073382;28;20032;-83
2021/04/21 00:11:00;;;;;;;8.70;3.88;;;;;;;;;;5073215;28;20071;-83
2021/04/21 00:13:27;;;;;;;6.70;4.15;;;;;;;;;;5071611;28;20036;-83
2021/04/21 00:15:53;;;;;;;9.73;4.18;;;;;;;;;;5063959;28;20472;-83
2021/04/21 00:18:20;;;;;;;9.30;3.72;;;;;;;;;;5062971;28;20025;-83
2021/04/21 00:20:55;;;;;;;8.25;3.50;;;;;;;;;;5068867;28;20029;-83
2021/04/21 00:23:22;;;;;;;8.68;4.13;;;;;;;;;;5051019;28;20021;-83
2021/04/21 00:25:50;;;;;;;8.43;4.25;;;;;;;;;;5062892;28;20025;-83
2021/04/21 00:28:17;;;;;;;7.28;4.50;;;;;;;;;;5050400;28;20029;-83
2021/04/21 00:30:44;;;;;;;6.82;4.20;;;;;;;;;;5055097;28;20388;-83
2021/04/21 00:33:12;;;;;;;9.23;4.28;;;;;;;;;;5054255;28;20040;-83
2021/04/21 00:35:42;;;;;;;7.32;3.70;;;;;;;;;;5044953;28;20036;-83
2021/04/21 00:38:18;;;;;;;6.55;3.65;;;;;;;;;;5034367;28;20033;-83
2021/04/21 00:40:44;;;;;;;9.18;3.80;;;;;;;;;;5046499;28;20025;-83
2021/04/21 00:43:21;;;;;;;7.55;4.10;;;;;;;;;;5053626;28;20027;-83
2021/04/21 00:45:49;;;;;;;7.30;3.58;;;;;;;;;;5055249;28;20024;-83
2021/04/21 00:48:26;;;;;;;5.28;3.55;;;;;;;;;;5051491;28;20033;-83
2021/04/21 00:50:56;;;;;;;11.80;4.10;;;;;;;;;;5053990;28;20029;-83
2021/04/21 00:53:36;;;;;;;7.25;4.10;;;;;;;;;;5037568;28;20033;-83
2021/04/21 00:56:06;;;;;;;9.15;4.15;;;;;;;;;;5044378;28;20048;-83
2021/04/21 00:58:40;;;;;;;8.63;4.30;;;;;;;;;;5053336;28;20180;-83
2021/04/21 01:01:08;;;;;;;6.75;4.22;;;;;;;;;;5055667;28;20498;-81
2021/04/21 01:03:34;;;;;;;7.97;4.10;;;;;;;;;;5053190;28;20598;-81
2021/04/21 01:06:01;;;;;;;9.75;4.20;;;;;;;;;;5052861;28;20552;-81
2021/04/21 01:08:29;;;;;;;7.38;3.85;;;;;;;;;;5038694;28;20049;-81
2021/04/21 01:11:01;;;;;;;11.88;3.72;;;;;;;;;;5040922;28;20104;-81
2021/04/21 01:13:30;;;;;;;8.63;3.75;;;;;;;;;;5053385;28;20029;-81
2021/04/21 01:15:57;;;;;;;4.80;3.20;;;;;;;;;;5054910;28;20427;-81
2021/04/21 01:18:25;;;;;;;9.80;4.22;;;;;;;;;;5047614;28;20676;-82
2021/04/21 01:21:03;;;;;;;5.95;3.78;;;;;;;;;;5051246;28;20143;-81
2021/04/21 01:23:47;;;;;;;5.35;3.80;;;;;;;;;;5053278;28;20448;-81
2021/04/21 01:26:18;;;;;;;6.57;3.92;;;;;;;;;;5057262;28;20021;-81
2021/04/21 01:28:47;;;;;;;7.03;3.72;;;;;;;;;;5048209;28;20031;-81
2021/04/21 01:31:14;;;;;;;7.80;4.38;;;;;;;;;;5057261;28;20556;-81
2021/04/21 01:33:41;;;;;;;7.65;3.92;;;;;;;;;;5050991;28;20243;-81
2021/04/21 01:36:07;;;;;;;9.15;4.60;;;;;;;;;;5066891;28;20025;-81
2021/04/21 01:38:35;;;;;;;8.43;4.75;;;;;;;;;;5074912;28;20028;-81
2021/04/21 01:41:09;;;;;;;11.73;4.40;;;;;;;;;;5072089;28;20048;-81
2021/04/21 01:43:46;;;;;;;6.40;4.20;;;;;;;;;;5069917;28;20028;-81
2021/04/21 01:46:14;;;;;;;8.10;4.68;;;;;;;;;;5072174;28;20032;-81
2021/04/21 01:48:41;;;;;;;9.48;4.85;;;;;;;;;;5069316;28;20021;-81
2021/04/21 01:51:22;;;;;;;10.13;5.00;;;;;;;;;;5071989;28;20033;-81
2021/04/21 01:53:51;;;;;;;9.27;4.07;;;;;;;;;;5072996;28;20025;-81
2021/04/21 01:56:26;;;;;;;6.45;3.67;;;;;;;;;;5074368;28;20024;-81
2021/04/21 01:58:58;;;;;;;6.38;4.45;;;;;;;;;;5074856;28;20036;-81
2021/04/21 02:01:39;;;;;;;7.85;3.65;;;;;;;;;;5071835;28;20033;-81
2021/04/21 02:04:09;;;;;;;12.68;4.32;;;;;;;;;;5073651;28;20020;-81
2021/04/21 02:06:56;;;;;;;8.30;4.18;;;;;;;;;;5084271;28;20039;-81
2021/04/21 02:09:40;;;;;;;7.63;4.53;;;;;;;;;;5075571;28;20012;-81
2021/04/21 02:12:25;;;;;;;10.07;4.10;;;;;;;;;;5073958;28;20052;-81
2021/04/21 02:15:04;;;;;;;11.23;4.38;;;;;;;;;;5072394;28;20107;-81
2021/04/21 02:17:52;;;;;;;8.40;4.20;;;;;;;;;;5070590;28;20008;-81
2021/04/21 02:20:25;;;;;;;9.05;3.90;;;;;;;;;;5070551;28;20021;-81
2021/04/21 02:23:07;;;;;;;8.40;4.07;;;;;;;;;;5071610;28;20012;-81
2021/04/21 02:25:47;;;;;;;12.13;3.67;;;;;;;;;;5096910;28;20011;-81
2021/04/21 02:28:19;;;;;;;7.35;4.55;;;;;;;;;;5071122;28;20285;-81
2021/04/21 02:31:03;;;;;;;7.88;4.30;;;;;;;;;;5092660;28;20047;-81
2021/04/21 02:33:41;;;;;;;7.70;4.07;;;;;;;;;;5076488;28;20029;-81
2021/04/21 02:36:07;;;;;;;6.97;4.10;;;;;;;;;;5077657;28;20023;-81
2021/04/21 02:38:45;;;;;;;7.63;4.10;;;;;;;;;;5062012;28;20024;-81
2021/04/21 02:41:17;;;;;;;9.18;4.53;;;;;;;;;;5070810;28;20033;-81
2021/04/21 02:44:19;;;;;;;7.22;4.25;;;;;;;;;;5063875;28;20384;-81
2021/04/21 02:46:57;;;;;;;7.10;4.10;;;;;;;;;;4971904;29;20115;-81
2021/04/21 02:49:34;;;;;;;7.60;4.22;;;;;;;;;;5071760;28;20468;-81
2021/04/21 02:52:23;;;;;;;9.60;4.55;;;;;;;;;;5066258;28;20062;-81
2021/04/21 02:55:09;;;;;;;8.50;4.20;;;;;;;;;;5056169;28;20119;-81
2021/04/21 02:57:46;;;;;;;10.75;4.25;;;;;;;;;;5077999;28;20432;-81
2021/04/21 03:00:22;;;;;;;9.50;5.10;;;;;;;;;;5060466;28;20024;-81
2021/04/21 03:02:58;;;;;;;8.40;4.82;;;;;;;;;;5040025;28;20021;-81
2021/04/21 03:05:26;;;;;;;9.82;4.38;;;;;;;;;;5069625;28;20016;-81
2021/04/21 03:08:00;;;;;;;10.18;4.97;;;;;;;;;;5059912;28;20044;-81
2021/04/21 03:10:32;;;;;;;11.52;4.75;;;;;;;;;;5059363;28;20035;-81
2021/04/21 03:13:17;;;;;;;12.38;5.22;;;;;;;;;;5060121;28;20574;-81
2021/04/21 03:15:44;;;;;;;10.10;4.82;;;;;;;;;;5060369;28;20066;-81
2021/04/21 03:18:14;;;;;;;8.85;4.80;;;;;;;;;;5051132;28;20035;-81
2021/04/21 03:20:42;;;;;;;10.70;4.95;;;;;;;;;;5064213;28;20037;-81
2021/04/21 03:23:11;;;;;;;13.70;5.05;;;;;;;;;;5052276;28;20482;-81
2021/04/21 03:25:39;;;;;;;10.75;4.88;;;;;;;;;;5073779;28;20016;-81
2021/04/21 03:28:10;;;;;;;9.50;4.88;;;;;;;;;;5077786;28;20380;-81
2021/04/21 03:30:36;;;;;;;8.75;4.88;;;;;;;;;;5059754;28;20561;-81
2021/04/21 03:33:09;;;;;;;12.00;4.75;;;;;;;;;;5067172;28;20025;-81
2021/04/21 03:35:35;;;;;;;11.37;4.80;;;;;;;;;;5032842;28;20037;-81
2021/04/21 03:38:03;;;;;;;10.32;5.10;;;;;;;;;;5077391;28;20028;-81
2021/04/21 03:40:29;;;;;;;13.18;5.22;;;;;;;;;;5059667;28;20029;-81
2021/04/21 03:42:56;;;;;;;11.02;4.53;;;;;;;;;;5047511;28;20064;-81
2021/04/21 03:45:22;;;;;;;10.18;4.93;;;;;;;;;;5045072;28;20033;-81
2021/04/21 03:47:49;;;;;;;7.45;4.65;;;;;;;;;;5076013;28;20033;-81
2021/04/21 03:50:15;;;;;;;9.25;4.13;;;;;;;;;;5054748;28;20082;-81
2021/04/21 03:52:44;;;;;;;13.35;4.57;;;;;;;;;;5052612;28;20020;-81
2021/04/21 03:55:10;;;;;;;10.23;4.25;;;;;;;;;;5059028;28;20513;-81
2021/04/21 03:57:40;;;;;;;9.07;4.70;;;;;;;;;;5042831;28;20033;-81
2021/04/21 04:00:06;;;;;;;8.75;4.65;;;;;;;;;;5053000;28;20047;-81
2021/04/21 04:02:34;;;;;;;9.18;4.90;;;;;;;;;;5074587;28;20059;-81
2021/04/21 04:05:01;;;;;;;8.43;4.10;;;;;;;;;;5057533;28;20024;-82
2021/04/21 04:07:28;;;;;;;11.85;4.80;;;;;;;;;;5053184;28;20037;-82
2021/04/21 04:09:57;;;;;;;9.68;5.03;;;;;;;;;;5047762;28;20013;-81
2021/04/21 04:12:26;;;;;;;7.90;4.35;;;;;;;;;;5051632;28;20056;-82
2021/04/21 04:14:55;;;;;;;10.05;5.03;;;;;;;;;;5045481;28;20561;-82
2021/04/21 04:17:22;;;;;;;6.45;4.38;;;;;;;;;;5041494;28;20029;-82
2021/04/21 04:19:48;;;;;;;9.52;4.88;;;;;;;;;;5050777;28;20486;-82
2021/04/21 04:22:16;;;;;;;7.05;4.72;;;;;;;;;;5038290;28;20033;-83
2021/04/21 04:24:48;;;;;;;9.07;5.10;;;;;;;;;;5063289;28;20557;-82
2021/04/21 04:27:16;;;;;;;9.88;5.05;;;;;;;;;;5073359;28;20033;-83
2021/04/21 04:29:43;;;;;;;10.32;5.43;;;;;;;;;;5076775;28;20074;-83
2021/04/21 04:32:13;;;;;;;8.57;4.25;;;;;;;;;;5058499;28;20074;-82
2021/04/21 04:34:42;;;;;;;7.90;4.40;;;;;;;;;;5055473;28;20040;-82
2021/04/21 04:37:09;;;;;;;9.95;5.43;;;;;;;;;;5047286;28;20029;-81
2021/04/21 04:39:36;;;;;;;9.50;4.82;;;;;;;;;;5050986;28;20119;-82
2021/04/21 04:42:02;;;;;;;13.25;4.63;;;;;;;;;;5051957;28;20190;-83
2021/04/21 04:44:28;;;;;;;10.43;4.80;;;;;;;;;;5050615;28;20120;-82
2021/04/21 04:46:55;;;;;;;8.25;4.72;;;;;;;;;;5052689;28;20025;-82
2021/04/21 04:49:23;;;;;;;8.85;5.05;;;;;;;;;;5044493;28;20021;-83
2021/04/21 04:51:52;;;;;;;12.32;4.90;;;;;;;;;;5047589;28;20044;-83
2021/04/21 04:54:18;;;;;;;9.30;4.80;;;;;;;;;;5053046;28;20048;-84
2021/04/21 04:56:45;;;;;;;10.23;5.13;;;;;;;;;;5048480;28;20047;-84
2021/04/21 04:59:12;;;;;;;9.38;4.22;;;;;;;;;;5062095;28;20036;-84
2021/04/21 05:01:41;;;;;;;13.20;5.78;;;;;;;;;;5062573;28;20020;-83
2021/04/21 05:04:11;;;;;;;11.32;5.00;;;;;;;;;;5062495;28;20115;-84
2021/04/21 05:06:39;;;;;;;9.88;5.63;;;;;;;;;;5058912;28;20095;-83
2021/04/21 05:09:08;;;;;;;8.82;5.00;;;;;;;;;;5044764;28;20025;-84
2021/04/21 05:11:36;;;;;;;11.23;5.40;;;;;;;;;;5055486;28;20032;-84
2021/04/21 05:14:05;;;;;;;11.05;5.53;;;;;;;;;;5054801;28;20541;-84
2021/04/21 05:16:50;;;;;;;14.73;5.60;;;;;;;;;;5060029;28;20025;-83
2021/04/21 05:19:35;;;;;;;9.43;6.40;;;;;;;;;;5054237;28;20033;-83
2021/04/21 05:22:16;;;;;;;11.40;6.78;;;;;;;;;;5045336;28;20112;-83
2021/04/21 05:24:42;;;;;;;8.27;5.53;;;;;;;;;;5043093;28;20036;-82
2021/04/21 05:27:32;;;;;;;8.73;5.32;;;;;;;;;;5058372;28;20447;-83
2021/04/21 05:30:12;;;;;;;12.48;6.60;;;;;;;;;;5039955;28;20025;-83
2021/04/21 05:32:54;;;;;;;15.02;7.13;;;;;;;;;;5041359;28;20116;-82
2021/04/21 05:35:35;;;;;;;11.82;6.30;;;;;;;;;;5058190;28;20059;-83
2021/04/21 05:38:20;;;;;;;12.18;5.90;;;;;;;;;;5047903;28;20111;-83
2021/04/21 05:40:56;;;;;;;11.73;6.07;;;;;;;;;;5058274;28;20037;-83
2021/04/21 05:43:54;;;;;;;9.25;6.22;;;;;;;;;;5059078;28;20047;-83
2021/04/21 05:46:46;;;;;;;13.57;6.30;;;;;;;;;;5058879;28;20171;-83
2021/04/21 05:49:30;;;;;;;13.23;5.03;;;;;;;;;;5054062;28;20029;-83
2021/04/21 05:52:14;;;;;;;11.55;6.05;;;;;;;;;;5046598;28;20048;-83
2021/04/21 05:54:59;;;;;;;14.32;6.07;;;;;;;;;;5050743;28;20048;-83
2021/04/21 05:57:44;;;;;;;13.50;5.80;;;;;;;;;;5058558;28;20033;-83
2021/04/21 06:00:29;;;;;;;10.07;4.65;;;;;;;;;;5053846;28;20446;-82
2021/04/21 06:02:55;;;;;;;10.65;6.50;;;;;;;;;;5038421;28;20068;-84
2021/04/21 06:05:21;;;;;;;11.30;5.95;;;;;;;;;;5054440;28;20071;-83
2021/04/21 06:07:47;;;;;;;9.45;5.13;;;;;;;;;;5080015;28;20040;-83
2021/04/21 06:10:23;;;;;;;14.18;5.65;;;;;;;;;;5070885;28;20029;-84
2021/04/21 06:12:51;;;;;;;10.68;4.90;;;;;;;;;;5058407;28;20097;-84
2021/04/21 06:15:21;;;;;;;14.18;5.85;;;;;;;;;;5062198;28;20025;-83
2021/04/21 06:17:51;;;;;;;10.38;5.63;;;;;;;;;;5057863;28;20124;-83
2021/04/21 06:20:27;;;;;;;13.10;5.72;;;;;;;;;;5056062;28;20051;-84
2021/04/21 06:23:04;;;;;;;11.15;5.20;;;;;;;;;;5060707;28;20467;-84
2021/04/21 06:25:30;;;;;;;13.57;5.53;;;;;;;;;;5054139;28;20056;-84
2021/04/21 06:28:29;;;;;;;11.10;5.60;;;;;;;;;;5042125;28;20380;-84
2021/04/21 06:31:05;;;;;;;10.48;5.43;;;;;;;;;;5027178;28;20070;-84
2021/04/21 06:33:35;;;;;;;9.48;5.43;;;;;;;;;;5061516;28;20025;-84
2021/04/21 06:36:02;;;;;;;12.02;5.63;;;;;;;;;;5059478;28;20059;-84
2021/04/21 06:38:31;;;;;;;9.77;5.00;;;;;;;;;;5057518;28;20050;-83
2021/04/21 06:40:58;;;;;;;10.07;5.70;;;;;;;;;;5060027;28;20098;-83
2021/04/21 06:43:25;;;;;;;13.23;6.20;;;;;;;;;;5051927;28;20107;-84
2021/04/21 06:45:52;;;;;;;11.13;6.00;;;;;;;;;;5053472;28;20083;-84
2021/04/21 06:48:26;;;;;;;13.25;6.53;;;;;;;;;;5052558;28;20036;-84
2021/04/21 06:50:52;;;;;;;11.57;6.00;;;;;;;;;;5075419;28;20099;-84
2021/04/21 06:53:18;;;;;;;11.82;5.82;;;;;;;;;;5068806;28;20024;-84
2021/04/21 06:55:44;;;;;;;12.57;5.82;;;;;;;;;;5056078;28;20115;-85
2021/04/21 06:58:17;;;;;;;11.77;5.55;;;;;;;;;;5047776;28;20054;-85
2021/04/21 07:00:43;;;;;;;14.90;6.20;;;;;;;;;;5057486;28;20430;-84
2021/04/21 07:03:15;;;;;;;16.00;6.03;;;;;;;;;;5055607;28;20191;-84
2021/04/21 07:05:43;;;;;;;11.68;6.22;;;;;;;;;;5064760;28;20127;-85
2021/04/21 07:08:10;;;;;;;9.35;4.93;;;;;;;;;;5054891;28;20043;-85
2021/04/21 07:10:38;;;;;;;12.43;5.38;;;;;;;;;;5056249;28;20046;-85
2021/04/21 07:13:05;;;;;;;10.95;5.90;;;;;;;;;;5049650;28;20102;-85
2021/04/21 07:15:33;;;;;;;10.02;5.40;;;;;;;;;;5056704;28;20017;-84
2021/04/21 07:17:59;;;;;;;8.15;5.38;;;;;;;;;;5046988;28;20120;-85
2021/04/21 07:20:25;;;;;;;13.02;5.25;;;;;;;;;;5057852;28;20505;-85
2021/04/21 07:22:52;;;;;;;11.05;5.00;;;;;;;;;;5057523;28;20119;-85
2021/04/21 07:25:18;;;;;;;11.70;5.47;;;;;;;;;;5057540;28;20104;-85
2021/04/21 07:27:45;;;;;;;10.90;5.60;;;;;;;;;;5056673;28;20028;-85
2021/04/21 07:30:12;;;;;;;9.65;5.00;;;;;;;;;;5057461;28;20017;-85
2021/04/21 07:32:45;;;;;;;13.10;5.60;;;;;;;;;;5054943;28;20033;-85
2021/04/21 07:35:17;;;;;;;10.70;5.07;;;;;;;;;;5042353;28;20041;-85
2021/04/21 07:37:44;;;;;;;10.68;5.18;;;;;;;;;;5049446;28;20027;-85
2021/04/21 07:40:27;;;;;;;8.77;5.05;;;;;;;;;;5074941;28;20020;-85
2021/04/21 07:43:12;;;;;;;7.68;4.97;;;;;;;;;;5057674;28;20025;-85
2021/04/21 07:45:42;;;;;;;11.32;5.50;;;;;;;;;;5037189;28;20036;-85
2021/04/21 07:48:36;;;;;;;11.45;5.10;;;;;;;;;;5037888;28;20024;-85
2021/04/21 07:51:27;;;;;;;12.70;5.47;;;;;;;;;;5074810;28;20027;-85
2021/04/21 07:53:59;;;;;;;7.93;4.20;;;;;;;;;;5037229;28;20112;-85
2021/04/21 07:56:34;;;;;;;9.93;4.28;;;;;;;;;;5052101;28;20058;-85
2021/04/21 07:59:14;;;;;;;7.22;3.65;;;;;;;;;;5056631;28;20025;-85
2021/04/21 08:01:40;;;;;;;7.15;4.65;;;;;;;;;;5073810;28;20119;-85
2021/04/21 08:04:20;;;;;;;8.45;4.00;;;;;;;;;;5055829;28;20059;-85
2021/04/21 08:06:48;;;;;;;8.85;4.25;;;;;;;;;;5058503;28;20040;-85
2021/04/21 08:09:14;;;;;;;8.02;4.10;;;;;;;;;;5057180;28;20029;-85
2021/04/21 08:11:40;;;;;;;6.82;4.03;;;;;;;;;;5056770;28;20388;-85
2021/04/21 08:14:06;;;;;;;8.77;4.47;;;;;;;;;;5049988;28;20021;-85
2021/04/21 08:16:35;;;;;;;7.25;3.88;;;;;;;;;;5052945;28;20033;-85
2021/04/21 08:19:10;;;;;;;13.57;4.53;;;;;;;;;;5070996;28;20074;-84
2021/04/21 08:21:39;;;;;;;12.77;4.95;;;;;;;;;;5057226;28;20056;-85
2021/04/21 08:24:09;;;;;;;9.68;5.30;;;;;;;;;;5051843;28;20110;-85
2021/04/21 08:26:36;;;;;;;12.07;5.75;;;;;;;;;;5074070;28;20391;-85
2021/04/21 08:29:02;;;;;;;9.50;5.07;;;;;;;;;;5055930;28;20016;-85
2021/04/21 08:31:29;;;;;;;8.05;4.88;;;;;;;;;;5054975;28;20028;-84
2021/04/21 08:33:55;;;;;;;9.25;5.35;;;;;;;;;;5050590;28;20036;-85
2021/04/21 08:36:21;;;;;;;7.95;4.90;;;;;;;;;;5058050;28;20040;-85
2021/04/21 08:38:48;;;;;;;11.38;5.38;;;;;;;;;;5069885;28;20042;-85
2021/04/21 08:41:16;;;;;;;7.97;4.25;;;;;;;;;;5045981;28;20044;-85
2021/04/21 08:43:42;;;;;;;7.88;4.80;;;;;;;;;;5063349;28;20013;-85
2021/04/21 08:46:09;;;;;;;10.30;5.53;;;;;;;;;;5063329;28;20448;-85
2021/04/21 08:48:35;;;;;;;14.05;6.00;;;;;;;;;;5056504;28;20025;-86
2021/04/21 08:51:02;;;;;;;7.57;4.97;;;;;;;;;;5037792;28;20021;-86
2021/04/21 08:53:29;;;;;;;7.85;4.72;;;;;;;;;;5065526;28;20024;-86
2021/04/21 08:55:55;;;;;;;10.13;5.38;;;;;;;;;;5054044;28;20024;-86
2021/04/21 08:58:25;;;;;;;11.00;5.55;;;;;;;;;;5055067;28;20039;-88
2021/04/21 09:00:51;;;;;;;9.35;5.55;;;;;;;;;;5039712;28;20064;-87
2021/04/21 09:03:17;;;;;;;7.80;5.45;;;;;;;;;;5048115;28;20025;-88
2021/04/21 09:05:43;;;;;;;11.93;5.53;;;;;;;;;;5054951;28;20020;-89
2021/04/21 09:08:10;;;;;;;12.93;6.05;;;;;;;;;;5054577;28;20016;-87
2021/04/21 09:10:39;;;;;;;8.40;5.63;;;;;;;;;;5044662;28;20029;-86
2021/04/21 09:13:06;;;;;;;14.63;5.35;;;;;;;;;;5055711;28;20036;-86
2021/04/21 09:15:31;;;;;;;14.30;5.75;;;;;;;;;;5046317;28;20021;-86
2021/04/21 09:17:58;;;;;;;10.10;5.60;;;;;;;;;;5045760;28;20373;-86
2021/04/21 09:20:25;;;;;;;9.43;4.35;;;;;;;;;;5053292;28;20017;-86
2021/04/21 09:23:10;;;;;;;8.77;4.32;;;;;;;;;;5055187;28;20511;-86
2021/04/21 09:25:38;;;;;;;9.13;3.88;;;;;;;;;;5054553;28;20029;-86
2021/04/21 09:28:05;;;;;;;8.95;4.40;;;;;;;;;;5055164;28;20114;-86
2021/04/21 09:30:31;;;;;;;8.57;3.53;;;;;;;;;;5054312;28;20063;-86
2021/04/21 09:32:58;;;;;;;10.63;4.45;;;;;;;;;;5054700;28;20032;-86
2021/04/21 09:35:28;;;;;;;9.02;3.95;;;;;;;;;;5047537;28;20032;-86
2021/04/21 09:38:06;;;;;;;8.65;3.53;;;;;;;;;;5055354;28;20448;-86
2021/04/21 09:40:33;;;;;;;7.47;4.32;;;;;;;;;;5071594;28;20091;-86
2021/04/21 09:42:59;;;;;;;7.65;3.92;;;;;;;;;;5063914;28;20021;-86
2021/04/21 09:45:32;;;;;;;10.25;3.58;;;;;;;;;;5057380;28;20032;-86
2021/04/21 09:48:08;;;;;;;11.38;4.32;;;;;;;;;;5068357;28;20048;-86
2021/04/21 09:50:36;;;;;;;5.93;3.15;;;;;;;;;;5052869;28;20060;-86
2021/04/21 09:53:17;;;;;;;7.93;3.42;;;;;;;;;;5066493;28;20013;-86
2021/04/21 09:55:43;;;;;;;10.43;3.70;;;;;;;;;;5044081;28;20599;-86
2021/04/21 09:58:09;;;;;;;7.43;3.90;;;;;;;;;;5057173;28;20054;-86
2021/04/21 10:00:39;;;;;;;5.10;3.13;;;;;;;;;;5057977;28;20383;-86
2021/04/21 10:03:15;;;;;;;8.27;3.35;;;;;;;;;;5049814;28;20025;-86
2021/04/21 10:05:41;;;;;;;8.45;3.40;;;;;;;;;;5049495;28;20025;-86
2021/04/21 10:08:18;;;;;;;7.93;3.65;;;;;;;;;;5053596;28;20472;-87
2021/04/21 10:11:05;;;;;;;12.48;3.95;;;;;;;;;;5054409;28;20021;-86
2021/04/21 10:13:44;;;;;;;7.47;3.50;;;;;;;;;;5055309;28;20070;-86
2021/04/21 10:16:11;;;;;;;14.95;3.38;;;;;;;;;;5057433;28;20488;-86
2021/04/21 10:18:38;;;;;;;7.53;3.35;;;;;;;;;;5075678;28;20114;-86
2021/04/21 10:21:04;;;;;;;8.70;3.85;;;;;;;;;;5047193;28;20124;-86
2021/04/21 10:23:31;;;;;;;6.55;3.67;;;;;;;;;;5048216;28;20050;-89
2021/04/21 10:26:07;;;;;;;7.63;3.63;;;;;;;;;;5056944;28;20488;-85
2021/04/21 10:28:34;;;;;;;9.32;3.25;;;;;;;;;;5054590;28;20527;-86
2021/04/21 10:31:03;;;;;;;9.23;4.13;;;;;;;;;;5043495;28;20037;-85
2021/04/21 10:33:29;;;;;;;8.88;3.78;;;;;;;;;;5047821;28;20047;-86
2021/04/21 10:35:56;;;;;;;6.97;3.53;;;;;;;;;;5056872;28;20558;-86
2021/04/21 10:38:24;;;;;;;7.20;3.25;;;;;;;;;;5057454;28;20367;-86
2021/04/21 10:40:50;;;;;;;6.53;3.70;;;;;;;;;;5041190;28;20025;-85
2021/04/21 10:43:36;;;;;;;5.20;2.88;;;;;;;;;;5054311;28;20032;-85
2021/04/21 10:46:02;;;;;;;9.25;3.05;;;;;;;;;;5059355;28;20017;-86
2021/04/21 10:48:39;;;;;;;7.18;2.90;;;;;;;;;;5053174;28;20119;-85
2021/04/21 10:51:25;;;;;;;4.65;2.65;;;;;;;;;;5054243;28;20439;-86
2021/04/21 10:53:51;;;;;;;8.85;2.85;;;;;;;;;;5054315;28;20108;-88
2021/04/21 10:56:21;;;;;;;3.65;2.50;;;;;;;;;;5056040;28;20486;-86
2021/04/21 10:58:50;;;;;;;9.93;2.92;;;;;;;;;;5056410;28;20052;-86
2021/04/21 11:01:30;;;;;;;5.63;3.00;;;;;;;;;;5057323;28;20021;-85
2021/04/21 11:03:56;;;;;;;5.25;3.10;;;;;;;;;;5056402;28;20029;-85
2021/04/21 11:06:38;;;;;;;6.00;3.22;;;;;;;;;;5061291;28;20073;-85
2021/04/21 11:09:04;;;;;;;6.28;3.15;;;;;;;;;;5054427;28;20032;-85
2021/04/21 11:11:34;;;;;;;9.32;2.70;;;;;;;;;;5052999;28;20100;-85
2021/04/21 11:14:00;;;;;;;6.65;2.88;;;;;;;;;;5052212;28;20081;-86
2021/04/21 11:16:32;;;;;;;10.75;3.03;;;;;;;;;;5056284;28;20024;-86
2021/04/21 11:19:17;;;;;;;13.63;3.33;;;;;;;;;;5054191;28;20024;-86
2021/04/21 11:21:43;;;;;;;8.23;2.22;;;;;;;;;;5054756;28;20024;-86
2021/04/21 11:24:10;;;;;;;5.00;2.50;;;;;;;;;;5057921;28;20522;-87
2021/04/21 11:26:37;;;;;;;7.00;2.20;;;;;;;;;;5051181;28;20033;-87
2021/04/21 11:29:16;;;;;;;7.30;2.28;;;;;;;;;;5052712;28;20582;-85
2021/04/21 11:31:42;;;;;;;7.47;2.15;;;;;;;;;;5067164;28;20035;-86
2021/04/21 11:34:14;;;;;;;4.18;2.08;;;;;;;;;;5058510;28;20090;-86
2021/04/21 11:36:47;;;;;;;3.70;2.30;;;;;;;;;;5065322;28;20020;-86
2021/04/21 11:39:13;;;;;;;5.78;2.45;;;;;;;;;;5073139;28;20417;-85
2021/04/21 11:41:43;;;;;;;4.90;2.33;;;;;;;;;;5053476;28;20037;-84
2021/04/21 11:44:09;;;;;;;5.38;2.60;;;;;;;;;;5073696;28;20016;-84
2021/04/21 11:46:54;;;;;;;4.07;2.20;;;;;;;;;;5068656;28;20500;-86
2021/04/21 11:49:58;;;;;;;9.10;2.40;;;;;;;;;;5051490;28;20483;-85
2021/04/21 11:52:43;;;;;;;7.70;2.55;;;;;;;;;;5011698;28;20483;-86
2021/04/21 11:55:10;;;;;;;3.90;2.10;;;;;;;;;;5011721;28;20036;-86
2021/04/21 11:57:37;;;;;;;3.92;2.10;;;;;;;;;;5039770;28;20037;-85
2021/04/21 12:00:08;;;;;;;4.80;1.85;;;;;;;;;;5064714;28;20032;-85
2021/04/21 12:02:35;;;;;;;3.28;1.98;;;;;;;;;;5075088;28;20032;-85
2021/04/21 12:05:01;;;;;;;4.75;2.50;;;;;;;;;;5066996;28;20031;-86
2021/04/21 12:07:27;;;;;;;8.73;2.60;;;;;;;;;;5048749;28;20053;-85
2021/04/21 12:09:53;;;;;;;4.50;1.80;;;;;;;;;;5058154;28;20112;-86
2021/04/21 12:12:23;;;;;;;4.20;1.95;;;;;;;;;;5053257;28;20480;-85
2021/04/21 12:15:02;;;;;;;8.90;2.30;;;;;;;;;;5048465;28;20357;-86
2021/04/21 12:17:28;;;;;;;5.32;2.08;;;;;;;;;;5032416;28;20025;-86
2021/04/21 12:19:54;;;;;;;3.40;1.70;;;;;;;;;;5036317;28;20035;-85
2021/04/21 12:22:20;;;;;;;5.10;2.13;;;;;;;;;;5051916;28;20125;-85
2021/04/21 12:24:46;;;;;;;7.40;2.35;;;;;;;;;;5044640;28;20362;-85
2021/04/21 12:27:31;;;;;;;6.50;1.95;;;;;;;;;;5041525;28;20029;-85
2021/04/21 12:29:57;;;;;;;4.30;1.95;;;;;;;;;;5052274;28;20024;-86
2021/04/21 12:32:26;;;;;;;4.15;2.05;;;;;;;;;;5053445;28;20025;-86
2021/04/21 12:34:52;;;;;;;5.30;2.15;;;;;;;;;;5041173;28;20029;-86
2021/04/21 12:37:22;;;;;;;5.25;2.17;;;;;;;;;;5037004;28;20035;-85
2021/04/21 12:39:49;;;;;;;4.00;2.30;;;;;;;;;;5034613;28;20045;-85
2021/04/21 12:42:19;;;;;;;7.47;2.40;;;;;;;;;;5042217;28;20059;-85
2021/04/21 12:44:45;;;;;;;5.28;2.20;;;;;;;;;;5043419;28;20041;-84
2021/04/21 12:47:12;;;;;;;5.03;2.00;;;;;;;;;;5051223;28;20098;-85
2021/04/21 12:49:49;;;;;;;5.03;2.20;;;;;;;;;;5041647;28;20033;-84
2021/04/21 12:52:16;;;;;;;4.63;2.47;;;;;;;;;;5048959;28;20063;-84
2021/04/21 12:54:50;;;;;;;4.28;2.00;;;;;;;;;;5057561;28;20020;-84
2021/04/21 12:57:17;;;;;;;6.00;2.03;;;;;;;;;;5043724;28;20029;-84
2021/04/21 12:59:44;;;;;;;2.90;1.60;;;;;;;;;;5047747;28;20030;-84
2021/04/21 13:02:13;;;;;;;4.35;1.98;;;;;;;;;;5049339;28;20480;-84
2021/04/21 13:04:40;;;;;;;4.65;1.67;;;;;;;;;;5051034;28;20026;-85
2021/04/21 13:07:16;;;;;;;4.85;1.58;;;;;;;;;;5052606;28;20508;-85
2021/04/21 13:09:42;;;;;;;5.03;1.67;;;;;;;;;;5049308;28;20023;-85
2021/04/21 13:12:14;;;;;;;3.35;1.83;;;;;;;;;;5050438;28;20025;-85
2021/04/21 13:14:41;;;;;;;3.50;1.77;;;;;;;;;;5048054;28;20080;-84
2021/04/21 13:17:08;;;;;;;4.07;1.55;;;;;;;;;;5055718;28;20025;-85
2021/04/21 13:19:35;;;;;;;3.83;1.48;;;;;;;;;;5048106;28;20036;-84
2021/04/21 13:22:03;;;;;;;2.20;1.27;;;;;;;;;;5050025;28;20028;-84
2021/04/21 13:24:29;;;;;;;3.63;1.35;;;;;;;;;;5058323;28;20025;-84
2021/04/21 13:26:56;;;;;;;4.65;1.75;;;;;;;;;;5053712;28;20112;-84
2021/04/21 13:29:35;;;;;;;5.13;1.70;;;;;;;;;;5056102;28;20942;-86
2021/04/21 13:32:11;;;;;;;2.75;1.70;;;;;;;;;;5047236;28;20033;-85
2021/04/21 13:34:38;;;;;;;4.15;1.65;;;;;;;;;;5042960;28;20116;-85
2021/04/21 13:37:04;;;;;;;4.72;1.30;;;;;;;;;;5048183;28;20033;-85
2021/04/21 13:39:30;;;;;;;3.35;1.77;;;;;;;;;;5049202;28;20446;-85
2021/04/21 13:41:56;;;;;;;4.25;1.83;;;;;;;;;;5042195;28;20033;-84
2021/04/21 13:44:22;;;;;;;2.25;1.40;;;;;;;;;;5052847;28;20506;-84
2021/04/21 13:46:48;;;;;;;5.35;1.90;;;;;;;;;;5048986;28;20033;-84
2021/04/21 13:49:16;;;;;;;6.57;1.95;;;;;;;;;;5053485;28;20037;-84
2021/04/21 13:51:43;;;;;;;7.57;2.15;;;;;;;;;;5046515;28;20029;-84
2021/04/21 13:54:09;;;;;;;5.88;2.65;;;;;;;;;;5049234;28;20057;-84
2021/04/21 13:56:35;;;;;;;4.57;2.10;;;;;;;;;;5046169;28;20043;-84
2021/04/21 13:59:00;;;;;;;3.80;2.35;;;;;;;;;;5047577;28;20884;-84
2021/04/21 14:01:26;;;;;;;5.43;2.28;;;;;;;;;;5051813;28;20029;-85
2021/04/21 14:03:52;;;;;;;6.50;1.65;;;;;;;;;;5048237;28;20396;-85
2021/04/21 14:06:18;;;;;;;2.50;1.95;;;;;;;;;;5045401;28;20091;-84
2021/04/21 14:08:44;;;;;;;4.82;1.73;;;;;;;;;;5043753;28;20032;-85
2021/04/21 14:11:11;;;;;;;5.95;2.30;;;;;;;;;;5047632;28;20427;-84
2021/04/21 14:13:37;;;;;;;7.10;1.60;;;;;;;;;;5049159;28;20409;-83
2021/04/21 14:16:03;;;;;;;2.97;1.70;;;;;;;;;;5039421;28;20029;-83
2021/04/21 14:18:29;;;;;;;3.10;1.70;;;;;;;;;;5046070;28;20037;-83
2021/04/21 14:20:55;;;;;;;3.92;1.70;;;;;;;;;;5045362;28;20036;-83
2021/04/21 14:23:21;;;;;;;6.07;2.42;;;;;;;;;;5044792;28;20029;-83
2021/04/21 14:25:47;;;;;;;8.05;2.25;;;;;;;;;;5050862;28;20029;-83
2021/04/21 14:28:13;;;;;;;5.93;2.75;;;;;;;;;;5048725;28;20040;-83
2021/04/21 14:30:39;;;;;;;4.00;2.30;;;;;;;;;;5055559;28;20013;-82
2021/04/21 14:33:05;;;;;;;5.18;2.25;;;;;;;;;;5051177;28;20045;-82
2021/04/21 14:35:31;;;;;;;8.48;2.63;;;;;;;;;;5046397;28;20029;-82
2021/04/21 14:37:58;;;;;;;4.65;1.83;;;;;;;;;;5052537;28;20501;-82
2021/04/21 14:40:24;;;;;;;4.10;2.13;;;;;;;;;;5052694;28;20017;-81
2021/04/21 14:42:50;;;;;;;5.63;2.25;;;;;;;;;;5054423;28;20064;-81
2021/04/21 14:45:16;;;;;;;2.90;2.03;;;;;;;;;;5054737;28;20083;-85
2021/04/21 14:47:42;;;;;;;6.15;2.42;;;;;;;;;;5054270;28;20068;-84
2021/04/21 14:50:08;;;;;;;5.57;2.55;;;;;;;;;;5055307;28;20032;-84
2021/04/21 14:52:35;;;;;;;9.40;3.08;;;;;;;;;;5048050;28;20025;-85
2021/04/21 14:55:01;;;;;;;4.90;2.40;;;;;;;;;;5047778;28;20021;-85
2021/04/21 14:57:27;;;;;;;5.20;3.10;;;;;;;;;;5043434;28;20543;-85
2021/04/21 14:59:54;;;;;;;6.60;2.85;;;;;;;;;;5053401;28;20084;-85